createdAt,value
2019-06-20T00:00:58.324Z,86.16
2019-06-20T00:03:30.651Z,85.62
2019-06-20T00:06:02.899Z,85.86
2019-06-20T00:08:35.124Z,86.00
2019-06-20T00:11:07.403Z,85.60
2019-06-20T00:13:39.607Z,85.64
2019-06-20T00:16:11.813Z,85.80
2019-06-20T00:18:44.151Z,85.90
2019-06-20T00:21:16.375Z,85.54
2019-06-20T00:23:48.589Z,85.55
2019-06-20T00:26:20.870Z,85.92
2019-06-20T00:28:54.205Z,86.07
2019-06-20T00:31:26.425Z,85.94
2019-06-20T00:33:58.641Z,86.14
2019-06-20T00:36:30.890Z,85.89
2019-06-20T00:39:03.088Z,86.05
2019-06-20T00:41:36.979Z,86.04
2019-06-20T00:44:09.203Z,86.26
2019-06-20T00:46:41.478Z,86.00
2019-06-20T00:49:14.818Z,85.97
2019-06-20T00:51:47.043Z,86.56
2019-06-20T00:54:19.272Z,86.33
2019-06-20T00:56:51.543Z,86.37
2019-06-20T00:59:23.748Z,85.77
2019-06-20T01:01:57.106Z,86.07
2019-06-20T01:04:29.370Z,85.73
2019-06-20T01:07:01.615Z,85.51
2019-06-20T01:09:33.887Z,85.40
2019-06-20T01:12:06.078Z,86.38
2019-06-20T01:14:38.312Z,86.29
2019-06-20T01:17:11.541Z,86.15
2019-06-20T01:19:43.843Z,86.26
2019-06-20T01:22:16.053Z,85.64
2019-06-20T01:24:48.366Z,85.54
2019-06-20T01:27:20.582Z,85.19
2019-06-20T01:29:52.790Z,85.88
2019-06-20T01:32:25.085Z,85.43
2019-06-20T01:34:57.383Z,85.55
2019-06-20T01:37:29.624Z,85.37
2019-06-20T01:40:01.930Z,85.48
2019-06-20T01:42:34.269Z,85.58
2019-06-20T01:45:06.499Z,85.62
2019-06-20T01:47:38.712Z,85.67
2019-06-20T01:50:10.986Z,86.11
2019-06-20T01:52:43.225Z,86.64
2019-06-20T01:55:15.454Z,86.28
2019-06-20T01:57:47.737Z,86.31
2019-06-20T02:00:19.941Z,86.68
2019-06-20T02:02:52.182Z,86.76
2019-06-20T02:05:24.418Z,86.77
2019-06-20T02:07:56.745Z,85.92
2019-06-20T02:10:29.073Z,85.99
2019-06-20T02:13:01.326Z,86.01
2019-06-20T02:15:33.554Z,85.15
2019-06-20T02:18:05.822Z,85.60
2019-06-20T02:20:38.013Z,85.89
2019-06-20T02:23:10.213Z,85.76
2019-06-20T02:25:42.487Z,86.20
2019-06-20T02:28:14.742Z,85.70
2019-06-20T02:30:46.936Z,85.72
2019-06-20T02:33:19.197Z,85.12
2019-06-20T02:35:51.512Z,85.26
2019-06-20T02:38:23.688Z,85.44
2019-06-20T02:40:55.951Z,85.41
2019-06-20T02:43:28.146Z,85.51
2019-06-20T02:46:00.406Z,85.46
2019-06-20T02:48:32.620Z,85.37
2019-06-20T02:51:04.841Z,85.13
2019-06-20T02:53:37.098Z,85.24
2019-06-20T02:56:09.353Z,85.44
2019-06-20T02:58:41.605Z,85.44
2019-06-20T03:01:13.839Z,85.62
2019-06-20T03:03:46.077Z,85.23
2019-06-20T03:06:19.022Z,84.27
2019-06-20T03:08:51.267Z,84.98
2019-06-20T03:11:23.535Z,85.18
2019-06-20T03:13:55.807Z,84.73
2019-06-20T03:16:28.134Z,84.89
2019-06-20T03:19:00.347Z,84.81
2019-06-20T03:21:32.558Z,84.85
2019-06-20T03:24:04.844Z,84.07
2019-06-20T03:26:37.080Z,85.06
2019-06-20T03:29:09.361Z,84.87
2019-06-20T03:31:41.623Z,85.05
2019-06-20T03:34:13.893Z,84.92
2019-06-20T03:36:46.183Z,84.81
2019-06-20T03:39:18.443Z,84.90
2019-06-20T03:41:50.712Z,84.80
2019-06-20T03:44:23.012Z,85.17
2019-06-20T03:46:55.227Z,85.37
2019-06-20T03:49:27.494Z,85.36
2019-06-20T03:51:59.767Z,85.43
2019-06-20T03:54:33.011Z,85.59
2019-06-20T03:57:05.257Z,85.72
2019-06-20T03:59:38.565Z,85.19
2019-06-20T04:02:10.817Z,85.53
2019-06-20T04:04:43.079Z,85.65
2019-06-20T04:07:15.335Z,85.72
2019-06-20T04:09:47.557Z,85.38
2019-06-20T04:12:19.854Z,85.19
2019-06-20T04:14:52.078Z,84.71
2019-06-20T04:17:24.298Z,85.11
2019-06-20T04:19:56.606Z,85.01
2019-06-20T04:22:28.820Z,85.25
2019-06-20T04:25:01.412Z,85.17
2019-06-20T04:27:33.616Z,85.16
2019-06-20T04:30:05.949Z,85.41
2019-06-20T04:32:38.149Z,84.97
2019-06-20T04:35:10.364Z,84.92
2019-06-20T04:37:43.691Z,84.53
2019-06-20T04:40:15.933Z,83.63
2019-06-20T04:42:48.236Z,84.10
2019-06-20T04:45:34.205Z,84.41
2019-06-20T04:47:54.419Z,84.44
2019-06-20T04:50:26.918Z,84.39
2019-06-20T04:52:59.152Z,84.08
2019-06-20T04:55:31.446Z,84.13
2019-06-20T04:58:03.691Z,84.40
2019-06-20T05:00:35.910Z,84.17
2019-06-20T05:03:08.199Z,83.40
2019-06-20T05:05:40.423Z,83.78
2019-06-20T05:08:12.702Z,83.62
2019-06-20T05:10:44.925Z,83.56
2019-06-20T05:13:17.184Z,83.16
2019-06-20T05:15:52.943Z,83.58
2019-06-20T05:18:24.322Z,83.81
2019-06-20T05:20:57.157Z,83.59
2019-06-20T05:23:30.363Z,83.24
2019-06-20T05:26:02.626Z,82.97
2019-06-20T05:28:34.880Z,83.32
2019-06-20T05:31:07.100Z,83.16
2019-06-20T05:33:39.372Z,82.32
2019-06-20T05:36:11.665Z,81.88
2019-06-20T05:38:43.891Z,81.61
2019-06-20T05:41:16.194Z,81.33
2019-06-20T05:43:48.447Z,80.83
2019-06-20T05:46:20.766Z,80.49
2019-06-20T05:48:53.004Z,80.06
2019-06-20T05:51:25.351Z,79.00
2019-06-20T05:53:57.559Z,78.94
2019-06-20T05:56:29.942Z,78.69
2019-06-20T05:59:02.037Z,78.67
2019-06-20T06:01:34.299Z,77.67
2019-06-20T06:04:06.507Z,76.65
2019-06-20T06:06:38.768Z,77.34
2019-06-20T06:09:10.985Z,77.11
2019-06-20T06:11:43.228Z,78.03
2019-06-20T06:14:15.565Z,77.08
2019-06-20T06:16:47.807Z,77.19
2019-06-20T06:19:20.007Z,76.21
2019-06-20T06:21:52.263Z,75.17
2019-06-20T06:24:24.465Z,75.25
2019-06-20T06:26:59.709Z,74.20
2019-06-20T06:29:30.652Z,72.91
2019-06-20T06:32:02.848Z,72.71
2019-06-20T06:34:35.078Z,71.93
2019-06-20T06:37:07.349Z,72.52
2019-06-20T06:39:43.276Z,73.73
2019-06-20T06:42:15.758Z,73.30
2019-06-20T06:44:47.980Z,73.12
2019-06-20T06:47:20.276Z,72.65
2019-06-20T06:49:52.539Z,72.45
2019-06-20T06:52:24.731Z,72.38
2019-06-20T06:54:56.961Z,73.12
2019-06-20T06:57:29.190Z,74.08
2019-06-20T07:00:01.411Z,72.50
2019-06-20T07:02:34.844Z,71.36
2019-06-20T07:05:07.084Z,70.92
2019-06-20T07:07:39.311Z,70.96
2019-06-20T07:10:11.693Z,72.90
2019-06-20T07:12:46.205Z,72.12
2019-06-20T07:15:18.700Z,69.48
2019-06-20T07:17:50.888Z,71.04
2019-06-20T07:20:23.367Z,69.83
2019-06-20T07:22:55.695Z,69.66
2019-06-20T07:25:27.722Z,69.97
2019-06-20T07:27:59.967Z,70.60
2019-06-20T07:30:32.246Z,69.82
2019-06-20T07:33:04.759Z,72.72
2019-06-20T07:35:37.010Z,69.88
2019-06-20T07:38:09.256Z,70.50
2019-06-20T07:40:41.526Z,71.06
2019-06-20T07:43:13.885Z,68.92
2019-06-20T07:46:01.415Z,68.22
2019-06-20T07:48:20.015Z,69.38
2019-06-20T07:50:52.222Z,68.49
2019-06-20T07:53:24.460Z,67.49
2019-06-20T07:55:56.744Z,68.12
2019-06-20T07:58:28.955Z,70.10
2019-06-20T08:01:01.253Z,66.96
2019-06-20T08:03:33.493Z,65.84
2019-06-20T08:06:05.719Z,64.87
2019-06-20T08:08:38.124Z,65.35
2019-06-20T08:11:10.316Z,65.48
2019-06-20T08:13:42.542Z,64.23
2019-06-20T08:16:14.850Z,63.35
2019-06-20T08:18:47.066Z,64.16
2019-06-20T08:21:19.266Z,63.62
2019-06-20T08:23:51.538Z,64.67
2019-06-20T08:26:24.783Z,65.07
2019-06-20T08:29:10.397Z,65.62
2019-06-20T08:31:31.005Z,66.15
2019-06-20T08:34:04.403Z,65.26
2019-06-20T08:36:36.736Z,65.35
2019-06-20T08:39:09.024Z,66.04
2019-06-20T08:41:41.285Z,66.15
2019-06-20T08:44:13.601Z,64.26
2019-06-20T08:46:45.835Z,64.73
2019-06-20T08:49:18.054Z,65.13
2019-06-20T08:51:50.303Z,65.51
2019-06-20T08:54:22.509Z,64.58
2019-06-20T08:56:56.109Z,64.63
2019-06-20T08:59:28.718Z,65.84
2019-06-20T09:04:34.871Z,65.63
2019-06-20T09:07:07.152Z,64.74
2019-06-20T09:09:39.324Z,65.23
2019-06-20T09:12:11.525Z,64.86
2019-06-20T09:14:43.787Z,64.52
2019-06-20T09:17:16.008Z,64.88
2019-06-20T09:19:48.250Z,64.38
2019-06-20T09:22:20.519Z,65.24
2019-06-20T09:24:53.663Z,65.44
2019-06-20T09:27:27.097Z,65.78
2019-06-20T09:30:00.407Z,65.40
2019-06-20T09:32:32.729Z,65.25
2019-06-20T09:35:04.924Z,66.01
2019-06-20T09:37:37.124Z,64.62
2019-06-20T09:40:09.375Z,63.71
2019-06-20T09:42:41.638Z,62.67
2019-06-20T09:45:13.854Z,62.63
2019-06-20T09:47:46.136Z,61.28
2019-06-20T09:50:18.387Z,60.94
2019-06-20T09:52:51.648Z,60.26
2019-06-20T09:55:24.728Z,60.41
2019-06-20T09:57:58.181Z,58.38
2019-06-20T10:00:30.583Z,58.72
2019-06-20T10:03:02.836Z,60.15
2019-06-20T10:05:35.081Z,59.62
2019-06-20T10:08:07.315Z,58.13
2019-06-20T10:10:39.578Z,57.90
2019-06-20T10:13:11.818Z,57.89
2019-06-20T10:15:44.938Z,57.75
2019-06-20T10:18:18.037Z,58.08
2019-06-20T10:20:51.124Z,57.93
2019-06-20T10:23:23.463Z,57.25
2019-06-20T10:25:55.658Z,58.24
2019-06-20T10:28:27.954Z,58.14
2019-06-20T10:31:00.248Z,59.31
2019-06-20T10:33:32.554Z,60.32
2019-06-20T10:36:04.810Z,60.04
2019-06-20T10:38:37.093Z,60.44
2019-06-20T10:41:09.335Z,59.06
2019-06-20T10:43:41.590Z,57.69
2019-06-20T10:46:13.809Z,57.64
2019-06-20T10:48:46.072Z,56.51
2019-06-20T10:51:18.344Z,56.39
2019-06-20T10:53:51.404Z,57.25
2019-06-20T10:56:24.761Z,58.62
2019-06-20T10:58:56.996Z,59.70
2019-06-20T11:01:29.215Z,58.78
2019-06-20T11:04:01.480Z,59.90
2019-06-20T11:06:34.768Z,59.32
2019-06-20T11:09:06.860Z,58.33
2019-06-20T11:11:40.142Z,58.30
2019-06-20T11:14:13.075Z,56.80
2019-06-20T11:16:45.297Z,57.78
2019-06-20T11:19:18.689Z,57.29
2019-06-20T11:21:50.918Z,57.45
2019-06-20T11:24:23.393Z,56.45
2019-06-20T11:26:55.667Z,57.42
2019-06-20T11:29:28.421Z,57.66
2019-06-20T11:32:00.709Z,54.32
2019-06-20T11:34:33.019Z,54.32
2019-06-20T11:37:05.332Z,55.73
2019-06-20T11:39:38.919Z,52.88
2019-06-20T11:42:11.400Z,52.73
2019-06-20T11:44:43.673Z,53.27
2019-06-20T11:47:15.916Z,53.21
2019-06-20T11:49:48.179Z,55.39
2019-06-20T11:52:20.368Z,54.43
2019-06-20T11:54:52.682Z,54.43
2019-06-20T11:57:24.827Z,55.31
2019-06-20T11:59:57.087Z,51.52
2019-06-20T12:02:29.523Z,49.27
2019-06-20T12:05:01.746Z,47.67
2019-06-20T12:07:33.968Z,47.32
2019-06-20T12:10:06.184Z,48.00
2019-06-20T12:12:39.595Z,50.10
2019-06-20T12:15:12.358Z,47.70
2019-06-20T12:17:45.328Z,42.20
2019-06-20T12:20:19.302Z,36.86
2019-06-20T12:22:51.971Z,38.95
2019-06-20T12:25:24.206Z,41.25
2019-06-20T12:27:57.032Z,42.59
2019-06-20T12:30:29.827Z,39.47
2019-06-20T12:33:02.604Z,35.68
2019-06-20T12:35:35.440Z,32.17
2019-06-20T12:38:08.216Z,32.88
2019-06-20T12:40:42.426Z,34.45
2019-06-20T12:43:15.773Z,32.54
2019-06-20T12:45:49.532Z,34.85
2019-06-20T12:48:22.442Z,34.45
2019-06-20T12:50:55.471Z,36.79
2019-06-20T12:53:27.734Z,40.86
2019-06-20T12:55:59.910Z,43.06
2019-06-20T12:58:32.204Z,45.72
2019-06-20T13:01:04.463Z,44.35
2019-06-20T13:03:38.591Z,44.16
2019-06-20T13:06:10.852Z,45.65
2019-06-20T13:08:43.650Z,43.71
2019-06-20T13:11:16.478Z,43.64
2019-06-20T13:13:49.213Z,38.57
2019-06-20T13:16:21.593Z,38.76
2019-06-20T13:18:54.799Z,40.79
2019-06-20T13:21:27.257Z,36.88
2019-06-20T13:23:59.905Z,35.90
2019-06-20T13:26:32.744Z,32.81
2019-06-20T13:29:05.552Z,31.75
2019-06-20T13:31:56.237Z,30.08
2019-06-20T13:34:12.965Z,30.89
2019-06-20T13:36:47.011Z,29.66
2019-06-20T13:39:20.085Z,32.29
2019-06-20T13:41:53.222Z,32.76
2019-06-20T13:44:26.038Z,31.42
2019-06-20T13:46:58.876Z,30.57
2019-06-20T13:49:31.977Z,29.93
2019-06-20T13:52:04.822Z,29.15
2019-06-20T13:54:39.665Z,28.01
2019-06-20T13:57:12.156Z,25.17
2019-06-20T13:59:45.702Z,26.29
2019-06-20T14:02:18.803Z,26.34
2019-06-20T14:04:51.560Z,24.51
2019-06-20T14:07:24.406Z,24.51
2019-06-20T14:09:57.201Z,22.85
2019-06-20T14:12:30.099Z,23.97
2019-06-20T14:15:02.902Z,27.46
2019-06-20T14:17:35.719Z,29.20
2019-06-20T14:20:08.527Z,33.02
2019-06-20T14:22:41.433Z,35.94
2019-06-20T14:25:14.711Z,37.14
2019-06-20T14:27:48.734Z,40.23
2019-06-20T14:30:20.889Z,40.74
2019-06-20T14:32:54.554Z,41.25
2019-06-20T14:35:28.165Z,42.66
2019-06-20T14:38:00.388Z,42.93
2019-06-20T14:40:32.631Z,43.37
2019-06-20T14:43:04.867Z,43.88
2019-06-20T14:45:38.100Z,44.25
2019-06-20T14:48:10.475Z,44.90
2019-06-20T14:50:46.443Z,45.50
2019-06-20T14:53:18.959Z,45.63
2019-06-20T14:55:51.712Z,45.21
2019-06-20T14:58:24.238Z,45.32
2019-06-20T15:00:56.487Z,46.27
2019-06-20T15:03:28.727Z,45.97
2019-06-20T15:06:02.060Z,46.04
2019-06-20T15:08:34.377Z,45.73
2019-06-20T15:11:06.643Z,45.63
2019-06-20T15:13:38.847Z,45.75
2019-06-20T15:16:11.102Z,46.20
2019-06-20T15:18:46.391Z,45.31
2019-06-20T15:21:17.277Z,45.44
2019-06-20T15:23:50.862Z,46.33
2019-06-20T15:26:23.599Z,45.24
2019-06-20T15:28:57.054Z,45.12
2019-06-20T15:31:29.490Z,43.08
2019-06-20T15:34:01.757Z,43.11
2019-06-20T15:36:34.093Z,43.44
2019-06-20T15:39:06.386Z,42.30
2019-06-20T15:41:39.179Z,42.81
2019-06-20T15:44:11.529Z,42.35
2019-06-20T15:46:43.787Z,43.87
2019-06-20T15:49:16.630Z,44.09
2019-06-20T15:51:49.256Z,43.39
2019-06-20T15:54:24.441Z,44.72
2019-06-20T15:56:55.422Z,44.72
2019-06-20T15:59:27.706Z,44.86
2019-06-20T16:01:59.904Z,44.92
2019-06-20T16:04:32.236Z,45.94
2019-06-20T16:07:04.447Z,45.88
2019-06-20T16:09:36.728Z,46.80
2019-06-20T16:12:09.174Z,45.16
2019-06-20T16:14:41.361Z,44.94
2019-06-20T16:17:13.885Z,45.92
2019-06-20T16:19:46.227Z,46.21
2019-06-20T16:22:18.575Z,47.71
2019-06-20T16:24:50.871Z,48.29
2019-06-20T16:27:23.123Z,49.41
2019-06-20T16:29:55.886Z,50.20
2019-06-20T16:32:28.096Z,51.46
2019-06-20T16:35:00.314Z,51.71
2019-06-20T16:37:32.545Z,52.68
2019-06-20T16:40:04.832Z,52.42
2019-06-20T16:42:37.052Z,52.62
2019-06-20T16:45:09.287Z,53.85
2019-06-20T16:47:42.618Z,53.41
2019-06-20T16:50:15.299Z,53.51
2019-06-20T16:52:47.432Z,53.14
2019-06-20T16:55:19.824Z,51.77
2019-06-20T16:57:52.073Z,49.40
2019-06-20T17:00:24.352Z,48.98
2019-06-20T17:02:56.784Z,48.98
2019-06-20T17:05:29.110Z,50.09
2019-06-20T17:08:01.461Z,50.21
2019-06-20T17:10:33.708Z,51.67
2019-06-20T17:13:06.074Z,51.63
2019-06-20T17:15:38.687Z,51.63
2019-06-20T17:18:11.137Z,52.07
2019-06-20T17:20:43.450Z,53.18
2019-06-20T17:23:15.706Z,53.13
2019-06-20T17:25:47.904Z,54.73
2019-06-20T17:28:20.158Z,54.74
2019-06-20T17:30:52.405Z,52.60
2019-06-20T17:33:24.613Z,53.18
2019-06-20T17:35:56.924Z,52.42
2019-06-20T17:38:29.114Z,53.19
2019-06-20T17:41:01.394Z,53.13
2019-06-20T17:43:33.670Z,52.29
2019-06-20T17:46:06.067Z,52.87
2019-06-20T17:48:38.379Z,53.73
2019-06-20T17:51:10.585Z,53.97
2019-06-20T17:53:42.872Z,55.09
2019-06-20T17:56:17.946Z,54.36
2019-06-20T17:58:50.234Z,55.05
2019-06-20T18:01:22.507Z,54.92
2019-06-20T18:03:54.783Z,55.73
2019-06-20T18:06:27.179Z,54.41
2019-06-20T18:09:01.537Z,54.84
2019-06-20T18:11:35.416Z,54.92
2019-06-20T18:14:07.448Z,54.14
2019-06-20T18:16:39.852Z,53.57
2019-06-20T18:19:12.119Z,51.39
2019-06-20T18:21:44.384Z,51.67
2019-06-20T18:24:16.602Z,49.79
2019-06-20T18:26:49.075Z,49.79
2019-06-20T18:29:21.444Z,50.86
2019-06-20T18:31:53.859Z,52.00
2019-06-20T18:34:30.249Z,52.98
2019-06-20T18:37:01.285Z,53.81
2019-06-20T18:39:33.528Z,53.42
2019-06-20T18:42:06.023Z,52.30
2019-06-20T18:44:38.579Z,52.82
2019-06-20T18:47:10.695Z,52.95
2019-06-20T18:49:42.897Z,53.53
2019-06-20T18:52:15.186Z,53.40
2019-06-20T18:54:47.400Z,53.45
2019-06-20T18:57:19.738Z,54.17
2019-06-20T18:59:52.013Z,52.54
2019-06-20T19:02:24.226Z,53.45
2019-06-20T19:04:56.494Z,53.53
2019-06-20T19:07:28.762Z,54.31
2019-06-20T19:10:01.222Z,54.19
2019-06-20T19:12:33.535Z,52.91
2019-06-20T19:15:05.732Z,52.81
2019-06-20T19:17:38.068Z,53.71
2019-06-20T19:20:10.158Z,53.86
2019-06-20T19:22:42.376Z,54.63
2019-06-20T19:25:14.609Z,55.31
2019-06-20T19:27:47.143Z,55.00
2019-06-20T19:30:19.424Z,55.60
2019-06-20T19:32:51.685Z,55.43
2019-06-20T19:35:23.916Z,55.99
2019-06-20T19:37:56.193Z,56.83
2019-06-20T19:40:28.436Z,56.57
2019-06-20T19:43:00.670Z,57.32
2019-06-20T19:45:32.867Z,56.64
2019-06-20T19:48:06.205Z,57.47
2019-06-20T19:50:38.404Z,58.15
2019-06-20T19:53:10.714Z,57.96
2019-06-20T19:55:42.965Z,58.94
2019-06-20T19:58:15.182Z,58.41
2019-06-20T20:00:47.515Z,59.43
2019-06-20T20:03:19.718Z,59.46
2019-06-20T20:05:51.994Z,59.78
2019-06-20T20:08:24.301Z,60.74
2019-06-20T20:10:56.448Z,61.30
2019-06-20T20:13:28.643Z,61.80
2019-06-20T20:16:00.877Z,62.04
2019-06-20T20:18:33.153Z,62.20
2019-06-20T20:21:05.399Z,62.42
2019-06-20T20:23:37.658Z,63.20
2019-06-20T20:26:09.882Z,63.49
2019-06-20T20:28:42.139Z,63.42
2019-06-20T20:31:14.223Z,63.77
2019-06-20T20:33:46.442Z,64.37
2019-06-20T20:36:24.838Z,64.83
2019-06-20T20:38:52.726Z,64.76
2019-06-20T20:41:24.954Z,65.14
2019-06-20T20:43:58.222Z,65.39
2019-06-20T20:46:30.648Z,64.67
2019-06-20T20:49:03.989Z,65.58
2019-06-20T20:51:36.311Z,65.23
2019-06-20T20:54:08.571Z,65.68
2019-06-20T20:56:40.812Z,66.18
2019-06-20T20:59:13.106Z,66.59
2019-06-20T21:01:45.457Z,66.33
2019-06-20T21:04:17.751Z,66.78
2019-06-20T21:06:51.091Z,66.98
2019-06-20T21:09:23.254Z,67.95
2019-06-20T21:11:55.499Z,67.56
2019-06-20T21:14:27.712Z,67.37
2019-06-20T21:16:59.983Z,67.54
2019-06-20T21:19:32.244Z,67.51
2019-06-20T21:22:04.480Z,67.79
2019-06-20T21:24:36.742Z,68.07
2019-06-20T21:27:08.994Z,68.43
2019-06-20T21:29:41.318Z,68.40
2019-06-20T21:32:13.550Z,68.72
2019-06-20T21:34:45.802Z,69.11
2019-06-20T21:37:17.949Z,70.03
2019-06-20T21:39:50.262Z,70.22
2019-06-20T21:42:22.483Z,70.17
2019-06-20T21:44:54.689Z,69.92
2019-06-20T21:47:28.312Z,70.34
2019-06-20T21:50:00.574Z,70.52
2019-06-20T21:52:33.353Z,70.11
2019-06-20T21:55:06.657Z,70.86
2019-06-20T21:57:38.853Z,71.10
2019-06-20T22:00:11.173Z,70.66
2019-06-20T22:02:45.049Z,71.01
2019-06-20T22:05:17.264Z,70.77
2019-06-20T22:07:49.495Z,70.60
2019-06-20T22:10:21.725Z,70.57
2019-06-20T22:12:53.948Z,70.82
2019-06-20T22:15:26.158Z,71.13
2019-06-20T22:17:58.441Z,71.06
2019-06-20T22:20:31.644Z,71.27
2019-06-20T22:23:03.899Z,71.30
2019-06-20T22:25:36.115Z,71.55
2019-06-20T22:28:08.299Z,71.59
2019-06-20T22:30:40.588Z,71.64
2019-06-20T22:33:12.820Z,71.68
2019-06-20T22:35:46.098Z,72.20
2019-06-20T22:38:18.471Z,72.20
2019-06-20T22:40:50.701Z,72.24
2019-06-20T22:43:22.970Z,72.20
2019-06-20T22:45:55.201Z,72.50
2019-06-20T22:48:27.483Z,72.50
2019-06-20T22:50:59.756Z,72.56
2019-06-20T22:53:31.954Z,72.72
2019-06-20T22:56:04.231Z,72.61
2019-06-20T22:58:36.468Z,73.33
2019-06-20T23:01:08.659Z,73.53
2019-06-20T23:03:40.964Z,73.54
2019-06-20T23:06:13.229Z,74.01
2019-06-20T23:08:45.463Z,73.80
2019-06-20T23:11:18.812Z,74.00
2019-06-20T23:13:51.031Z,73.68
2019-06-20T23:16:23.254Z,74.32
2019-06-20T23:18:55.553Z,74.31
2019-06-20T23:21:27.778Z,74.53
2019-06-20T23:24:00.048Z,74.42
2019-06-20T23:26:32.222Z,74.52
2019-06-20T23:29:04.430Z,74.67
2019-06-20T23:31:36.698Z,74.60
2019-06-20T23:34:08.919Z,75.41
2019-06-20T23:36:41.193Z,75.26
2019-06-20T23:39:13.512Z,74.98
2019-06-20T23:41:45.735Z,74.92
2019-06-20T23:44:17.945Z,74.97
2019-06-20T23:46:50.211Z,75.05
2019-06-20T23:49:22.441Z,75.14
2019-06-20T23:51:54.657Z,75.46
2019-06-20T23:54:26.892Z,75.53
2019-06-20T23:56:59.138Z,75.20
2019-06-20T23:59:31.351Z,75.39
